sensor_id;sensor_type;location;lat;lon;timestamp;pressure;altitude;pressure_sealevel;temperature;humidity
9474;BME280;8865;47.636;7.692;2023-04-16T00:00:50;98345.28;;;9.46;100.00
9474;BME280;8865;47.636;7.692;2023-04-16T00:03:16;98350.50;;;9.46;100.00
9474;BME280;8865;47.636;7.692;2023-04-16T00:05:42;98351.22;;;9.48;100.00
9474;BME280;8865;47.636;7.692;2023-04-16T00:08:08;98347.66;;;9.50;100.00
9474;BME280;8865;47.636;7.692;2023-04-16T00:10:34;98345.41;;;9.45;100.00
9474;BME280;8865;47.636;7.692;2023-04-16T00:13:00;98341.13;;;9.44;100.00
9474;BME280;8865;47.636;7.692;2023-04-16T00:15:26;98343.16;;;9.40;100.00
9474;BME280;8865;47.636;7.692;2023-04-16T00:17:52;98352.06;;;9.49;100.00
9474;BME280;8865;47.636;7.692;2023-04-16T00:20:18;98346.47;;;9.54;100.00
9474;BME280;8865;47.636;7.692;2023-04-16T00:22:45;98350.28;;;9.50;100.00
9474;BME280;8865;47.636;7.692;2023-04-16T00:25:12;98339.34;;;9.44;100.00
9474;BME280;8865;47.636;7.692;2023-04-16T00:27:38;98357.38;;;9.47;100.00
9474;BME280;8865;47.636;7.692;2023-04-16T00:30:05;98345.16;;;9.48;100.00
9474;BME280;8865;47.636;7.692;2023-04-16T00:32:31;98346.34;;;9.44;100.00
9474;BME280;8865;47.636;7.692;2023-04-16T00:34:57;98346.28;;;9.34;100.00
9474;BME280;8865;47.636;7.692;2023-04-16T00:37:23;98345.78;;;9.29;100.00
9474;BME280;8865;47.636;7.692;2023-04-16T00:39:49;98340.91;;;9.36;100.00
9474;BME280;8865;47.636;7.692;2023-04-16T00:42:15;98345.91;;;9.39;100.00
9474;BME280;8865;47.636;7.692;2023-04-16T00:44:41;98354.69;;;9.49;100.00
9474;BME280;8865;47.636;7.692;2023-04-16T00:47:07;98351.34;;;9.47;100.00
9474;BME280;8865;47.636;7.692;2023-04-16T00:49:34;98353.72;;;9.50;100.00
9474;BME280;8865;47.636;7.692;2023-04-16T00:52:01;98358.81;;;9.52;100.00
9474;BME280;8865;47.636;7.692;2023-04-16T00:54:28;98355.63;;;9.48;100.00
9474;BME280;8865;47.636;7.692;2023-04-16T00:56:55;98360.38;;;9.43;100.00
9474;BME280;8865;47.636;7.692;2023-04-16T00:59:21;98364.41;;;9.47;100.00
9474;BME280;8865;47.636;7.692;2023-04-16T01:01:47;98368.81;;;9.46;100.00
9474;BME280;8865;47.636;7.692;2023-04-16T01:04:13;98368.22;;;9.43;100.00
9474;BME280;8865;47.636;7.692;2023-04-16T01:06:39;98367.97;;;9.46;100.00
9474;BME280;8865;47.636;7.692;2023-04-16T01:09:05;98371.31;;;9.48;100.00
9474;BME280;8865;47.636;7.692;2023-04-16T01:11:31;98366.94;;;9.37;100.00
9474;BME280;8865;47.636;7.692;2023-04-16T01:13:57;98358.13;;;9.38;100.00
9474;BME280;8865;47.636;7.692;2023-04-16T01:16:23;98357.09;;;9.18;100.00
9474;BME280;8865;47.636;7.692;2023-04-16T01:18:51;98358.97;;;9.27;100.00
9474;BME280;8865;47.636;7.692;2023-04-16T01:21:17;98376.81;;;9.22;100.00
9474;BME280;8865;47.636;7.692;2023-04-16T01:23:43;98376.13;;;9.20;100.00
9474;BME280;8865;47.636;7.692;2023-04-16T01:26:09;98373.38;;;9.22;100.00
9474;BME280;8865;47.636;7.692;2023-04-16T01:28:35;98362.81;;;9.23;100.00
9474;BME280;8865;47.636;7.692;2023-04-16T01:31:01;98367.53;;;9.29;100.00
9474;BME280;8865;47.636;7.692;2023-04-16T01:33:27;98376.13;;;9.20;100.00
9474;BME280;8865;47.636;7.692;2023-04-16T01:35:53;98369.22;;;9.19;100.00
9474;BME280;8865;47.636;7.692;2023-04-16T01:38:20;98371.59;;;9.22;100.00
9474;BME280;8865;47.636;7.692;2023-04-16T01:40:46;98376.22;;;9.19;100.00
9474;BME280;8865;47.636;7.692;2023-04-16T01:43:12;98377.41;;;9.15;100.00
9474;BME280;8865;47.636;7.692;2023-04-16T01:45:38;98378.47;;;9.12;100.00
9474;BME280;8865;47.636;7.692;2023-04-16T01:48:04;98386.09;;;9.04;100.00
9474;BME280;8865;47.636;7.692;2023-04-16T01:50:30;98386.44;;;8.99;100.00
9474;BME280;8865;47.636;7.692;2023-04-16T01:52:56;98384.06;;;9.07;100.00
9474;BME280;8865;47.636;7.692;2023-04-16T01:55:22;98393.94;;;9.04;100.00
9474;BME280;8865;47.636;7.692;2023-04-16T01:57:49;98397.25;;;9.06;100.00
9474;BME280;8865;47.636;7.692;2023-04-16T02:00:15;98404.03;;;9.08;100.00
9474;BME280;8865;47.636;7.692;2023-04-16T02:02:41;98402.72;;;9.03;100.00
9474;BME280;8865;47.636;7.692;2023-04-16T02:05:07;98401.06;;;9.13;100.00
9474;BME280;8865;47.636;7.692;2023-04-16T02:07:33;98408.78;;;9.15;100.00
9474;BME280;8865;47.636;7.692;2023-04-16T02:09:59;98410.69;;;9.13;100.00
9474;BME280;8865;47.636;7.692;2023-04-16T02:12:25;98411.50;;;9.13;100.00
9474;BME280;8865;47.636;7.692;2023-04-16T02:14:52;98411.38;;;9.15;100.00
9474;BME280;8865;47.636;7.692;2023-04-16T02:17:18;98412.44;;;9.12;100.00
9474;BME280;8865;47.636;7.692;2023-04-16T02:19:44;98411.97;;;9.07;100.00
9474;BME280;8865;47.636;7.692;2023-04-16T02:22:09;98415.28;;;9.09;100.00
9474;BME280;8865;47.636;7.692;2023-04-16T02:24:35;98407.69;;;9.06;100.00
9474;BME280;8865;47.636;7.692;2023-04-16T02:27:01;98411.63;;;9.11;100.00
9474;BME280;8865;47.636;7.692;2023-04-16T02:29:28;98404.59;;;9.12;100.00
9474;BME280;8865;47.636;7.692;2023-04-16T02:31:54;98415.78;;;9.14;100.00
9474;BME280;8865;47.636;7.692;2023-04-16T02:34:20;98412.94;;;9.17;100.00
9474;BME280;8865;47.636;7.692;2023-04-16T02:36:47;98417.94;;;9.20;100.00
9474;BME280;8865;47.636;7.692;2023-04-16T02:39:12;98411.59;;;9.23;100.00
9474;BME280;8865;47.636;7.692;2023-04-16T02:41:38;98411.59;;;9.23;100.00
9474;BME280;8865;47.636;7.692;2023-04-16T02:44:05;98412.81;;;9.19;100.00
9474;BME280;8865;47.636;7.692;2023-04-16T02:46:30;98406.41;;;9.11;100.00
9474;BME280;8865;47.636;7.692;2023-04-16T02:48:56;98407.09;;;9.02;100.00
9474;BME280;8865;47.636;7.692;2023-04-16T02:51:22;98410.31;;;8.94;100.00
9474;BME280;8865;47.636;7.692;2023-04-16T02:53:48;98407.47;;;8.86;100.00
9474;BME280;8865;47.636;7.692;2023-04-16T02:56:15;98413.63;;;8.85;100.00
9474;BME280;8865;47.636;7.692;2023-04-16T02:58:41;98414.81;;;8.81;100.00
9474;BME280;8865;47.636;7.692;2023-04-16T03:01:07;98417.81;;;8.88;100.00
9474;BME280;8865;47.636;7.692;2023-04-16T03:03:33;98416.59;;;8.92;100.00
9474;BME280;8865;47.636;7.692;2023-04-16T03:05:59;98417.69;;;8.89;100.00
9474;BME280;8865;47.636;7.692;2023-04-16T03:08:25;98414.97;;;8.91;100.00
9474;BME280;8865;47.636;7.692;2023-04-16T03:10:51;98418.16;;;8.83;100.00
9474;BME280;8865;47.636;7.692;2023-04-16T03:13:17;98426.56;;;8.87;100.00
9474;BME280;8865;47.636;7.692;2023-04-16T03:15:47;98421.69;;;8.93;100.00
9474;BME280;8865;47.636;7.692;2023-04-16T03:18:14;98422.78;;;9.02;100.00
9474;BME280;8865;47.636;7.692;2023-04-16T03:20:40;98432.88;;;8.96;100.00
9474;BME280;8865;47.636;7.692;2023-04-16T03:23:06;98424.69;;;9.00;100.00
9474;BME280;8865;47.636;7.692;2023-04-16T03:25:32;98427.78;;;9.05;100.00
9474;BME280;8865;47.636;7.692;2023-04-16T03:27:58;98430.50;;;9.04;100.00
9474;BME280;8865;47.636;7.692;2023-04-16T03:30:24;98429.06;;;9.00;100.00
9474;BME280;8865;47.636;7.692;2023-04-16T03:32:50;98429.53;;;8.93;100.00
9474;BME280;8865;47.636;7.692;2023-04-16T03:35:16;98431.56;;;8.90;100.00
9474;BME280;8865;47.636;7.692;2023-04-16T03:37:43;98420.19;;;8.91;100.00
9474;BME280;8865;47.636;7.692;2023-04-16T03:40:09;98424.09;;;8.97;100.00
9474;BME280;8865;47.636;7.692;2023-04-16T03:42:34;98427.91;;;8.92;100.00
9474;BME280;8865;47.636;7.692;2023-04-16T03:45:00;98419.59;;;8.99;100.00
9474;BME280;8865;47.636;7.692;2023-04-16T03:47:27;98417.91;;;8.98;100.00
9474;BME280;8865;47.636;7.692;2023-04-16T03:49:53;98418.16;;;8.94;100.00
9474;BME280;8865;47.636;7.692;2023-04-16T03:52:19;98416.47;;;8.82;100.00
9474;BME280;8865;47.636;7.692;2023-04-16T03:54:45;98415.78;;;8.91;100.00
9474;BME280;8865;47.636;7.692;2023-04-16T03:57:11;98413.06;;;8.93;100.00
9474;BME280;8865;47.636;7.692;2023-04-16T03:59:36;98410.78;;;8.88;100.00
9474;BME280;8865;47.636;7.692;2023-04-16T04:02:02;98410.56;;;8.91;100.00
9474;BME280;8865;47.636;7.692;2023-04-16T04:04:28;98407.69;;;8.94;100.00
9474;BME280;8865;47.636;7.692;2023-04-16T04:06:54;98407.59;;;8.96;100.00
9474;BME280;8865;47.636;7.692;2023-04-16T04:09:21;98407.81;;;8.93;100.00
9474;BME280;8865;47.636;7.692;2023-04-16T04:11:47;98406.50;;;8.76;100.00
9474;BME280;8865;47.636;7.692;2023-04-16T04:14:12;98407.78;;;8.70;100.00
9474;BME280;8865;47.636;7.692;2023-04-16T04:16:38;98403.88;;;8.65;100.00
9474;BME280;8865;47.636;7.692;2023-04-16T04:19:04;98405.31;;;8.69;100.00
9474;BME280;8865;47.636;7.692;2023-04-16T04:21:30;98409.69;;;8.80;100.00
9474;BME280;8865;47.636;7.692;2023-04-16T04:23:57;98403.31;;;8.84;100.00
9474;BME280;8865;47.636;7.692;2023-04-16T04:26:23;98407.09;;;8.68;100.00
9474;BME280;8865;47.636;7.692;2023-04-16T04:28:49;98416.31;;;8.61;100.00
9474;BME280;8865;47.636;7.692;2023-04-16T04:31:15;98420.84;;;8.70;100.00
9474;BME280;8865;47.636;7.692;2023-04-16T04:33:41;98424.91;;;8.63;100.00
9474;BME280;8865;47.636;7.692;2023-04-16T04:36:07;98428.31;;;8.64;100.00
9474;BME280;8865;47.636;7.692;2023-04-16T04:38:33;98435.94;;;8.67;100.00
9474;BME280;8865;47.636;7.692;2023-04-16T04:40:59;98435.00;;;8.79;100.00
9474;BME280;8865;47.636;7.692;2023-04-16T04:43:24;98437.03;;;8.75;100.00
9474;BME280;8865;47.636;7.692;2023-04-16T04:45:51;98439.06;;;8.83;100.00
9474;BME280;8865;47.636;7.692;2023-04-16T04:48:17;98426.94;;;8.82;100.00
9474;BME280;8865;47.636;7.692;2023-04-16T04:50:44;98435.13;;;8.78;100.00
9474;BME280;8865;47.636;7.692;2023-04-16T04:53:10;98439.75;;;8.74;100.00
9474;BME280;8865;47.636;7.692;2023-04-16T04:55:36;98435.69;;;8.70;100.00
9474;BME280;8865;47.636;7.692;2023-04-16T04:58:06;98433.31;;;8.78;100.00
9474;BME280;8865;47.636;7.692;2023-04-16T05:00:33;98438.09;;;8.84;100.00
9474;BME280;8865;47.636;7.692;2023-04-16T05:03:04;98443.53;;;8.81;100.00
9474;BME280;8865;47.636;7.692;2023-04-16T05:05:31;98446.53;;;8.88;100.00
9474;BME280;8865;47.636;7.692;2023-04-16T05:07:57;98450.44;;;8.93;100.00
9474;BME280;8865;47.636;7.692;2023-04-16T05:10:23;98454.84;;;8.93;100.00
9474;BME280;8865;47.636;7.692;2023-04-16T05:12:48;98462.91;;;9.01;100.00
9474;BME280;8865;47.636;7.692;2023-04-16T05:15:15;98460.78;;;8.95;100.00
9474;BME280;8865;47.636;7.692;2023-04-16T05:17:41;98464.09;;;8.86;100.00
9474;BME280;8865;47.636;7.692;2023-04-16T05:20:08;98464.94;;;8.86;100.00
9474;BME280;8865;47.636;7.692;2023-04-16T05:22:34;98470.50;;;8.93;100.00
9474;BME280;8865;47.636;7.692;2023-04-16T05:25:00;98467.66;;;8.96;100.00
9474;BME280;8865;47.636;7.692;2023-04-16T05:27:27;98468.25;;;9.00;100.00
9474;BME280;8865;47.636;7.692;2023-04-16T05:29:53;98469.00;;;9.02;100.00
9474;BME280;8865;47.636;7.692;2023-04-16T05:32:19;98472.31;;;8.92;100.00
9474;BME280;8865;47.636;7.692;2023-04-16T05:34:45;98471.22;;;8.95;100.00
9474;BME280;8865;47.636;7.692;2023-04-16T05:37:11;98478.59;;;9.01;100.00
9474;BME280;8865;47.636;7.692;2023-04-16T05:39:37;98484.03;;;8.98;100.00
9474;BME280;8865;47.636;7.692;2023-04-16T05:42:03;98485.84;;;8.98;100.00
9474;BME280;8865;47.636;7.692;2023-04-16T05:44:29;98488.22;;;9.01;100.00
9474;BME280;8865;47.636;7.692;2023-04-16T05:46:55;98490.38;;;8.96;100.00
9474;BME280;8865;47.636;7.692;2023-04-16T05:49:21;98489.63;;;8.93;100.00
9474;BME280;8865;47.636;7.692;2023-04-16T05:51:47;98492.59;;;8.89;100.00
9474;BME280;8865;47.636;7.692;2023-04-16T05:54:13;98483.47;;;8.94;100.00
9474;BME280;8865;47.636;7.692;2023-04-16T05:56:39;98489.16;;;8.88;100.00
9474;BME280;8865;47.636;7.692;2023-04-16T05:59:05;98492.69;;;8.87;100.00
9474;BME280;8865;47.636;7.692;2023-04-16T06:01:32;98500.41;;;8.89;100.00
9474;BME280;8865;47.636;7.692;2023-04-16T06:03:58;98503.38;;;8.84;100.00
9474;BME280;8865;47.636;7.692;2023-04-16T06:06:24;98497.22;;;8.85;100.00
9474;BME280;8865;47.636;7.692;2023-04-16T06:08:52;98503.03;;;8.89;100.00
9474;BME280;8865;47.636;7.692;2023-04-16T06:11:18;98491.66;;;8.90;100.00
9474;BME280;8865;47.636;7.692;2023-04-16T06:13:44;98496.97;;;8.88;100.00
9474;BME280;8865;47.636;7.692;2023-04-16T06:16:09;98502.69;;;8.93;100.00
9474;BME280;8865;47.636;7.692;2023-04-16T06:18:35;98500.31;;;8.90;100.00
9474;BME280;8865;47.636;7.692;2023-04-16T06:21:02;98504.72;;;8.90;100.00
9474;BME280;8865;47.636;7.692;2023-04-16T06:23:28;98505.66;;;8.89;100.00
9474;BME280;8865;47.636;7.692;2023-04-16T06:25:55;98502.44;;;8.85;100.00
9474;BME280;8865;47.636;7.692;2023-04-16T06:28:21;98506.91;;;8.72;100.00
9474;BME280;8865;47.636;7.692;2023-04-16T06:30:47;98508.25;;;8.78;100.00
9474;BME280;8865;47.636;7.692;2023-04-16T06:33:13;98506.78;;;8.73;100.00
9474;BME280;8865;47.636;7.692;2023-04-16T06:35:39;98509.19;;;8.76;100.00
9474;BME280;8865;47.636;7.692;2023-04-16T06:38:05;98510.75;;;8.79;100.00
9474;BME280;8865;47.636;7.692;2023-04-16T06:40:31;98511.16;;;8.62;100.00
9474;BME280;8865;47.636;7.692;2023-04-16T06:42:57;98514.59;;;8.62;100.00
9474;BME280;8865;47.636;7.692;2023-04-16T06:45:23;98519.00;;;8.62;100.00
9474;BME280;8865;47.636;7.692;2023-04-16T06:47:49;98519.59;;;8.65;100.00
9474;BME280;8865;47.636;7.692;2023-04-16T06:50:16;98524.47;;;8.70;100.00
9474;BME280;8865;47.636;7.692;2023-04-16T06:52:43;98523.38;;;8.61;100.00
9474;BME280;8865;47.636;7.692;2023-04-16T06:55:09;98528.03;;;8.69;100.00
9474;BME280;8865;47.636;7.692;2023-04-16T06:57:35;98533.59;;;8.64;100.00
9474;BME280;8865;47.636;7.692;2023-04-16T07:00:05;98536.44;;;8.61;100.00
9474;BME280;8865;47.636;7.692;2023-04-16T07:02:31;98536.81;;;8.68;100.00
9474;BME280;8865;47.636;7.692;2023-04-16T07:04:57;98539.22;;;8.71;100.00
9474;BME280;8865;47.636;7.692;2023-04-16T07:07:23;98536.31;;;8.63;100.00
9474;BME280;8865;47.636;7.692;2023-04-16T07:09:49;98537.75;;;8.43;100.00
9474;BME280;8865;47.636;7.692;2023-04-16T07:12:15;98545.78;;;8.52;100.00
9474;BME280;8865;47.636;7.692;2023-04-16T07:14:41;98546.38;;;8.56;100.00
9474;BME280;8865;47.636;7.692;2023-04-16T07:17:07;98543.88;;;8.54;100.00
9474;BME280;8865;47.636;7.692;2023-04-16T07:19:33;98546.13;;;8.48;100.00
9474;BME280;8865;47.636;7.692;2023-04-16T07:22:00;98545.69;;;8.41;100.00
9474;BME280;8865;47.636;7.692;2023-04-16T07:24:26;98551.84;;;8.40;100.00
9474;BME280;8865;47.636;7.692;2023-04-16T07:26:52;98550.75;;;8.31;100.00
9474;BME280;8865;47.636;7.692;2023-04-16T07:29:18;98549.97;;;8.18;100.00
9474;BME280;8865;47.636;7.692;2023-04-16T07:31:44;98556.91;;;8.30;100.00
9474;BME280;8865;47.636;7.692;2023-04-16T07:34:10;98559.03;;;8.25;100.00
9474;BME280;8865;47.636;7.692;2023-04-16T07:36:36;98554.06;;;8.33;100.00
9474;BME280;8865;47.636;7.692;2023-04-16T07:39:03;98566.09;;;8.23;100.00
9474;BME280;8865;47.636;7.692;2023-04-16T07:41:29;98563.53;;;8.10;100.00
9474;BME280;8865;47.636;7.692;2023-04-16T07:43:55;98574.09;;;8.09;100.00
9474;BME280;8865;47.636;7.692;2023-04-16T07:46:22;98568.03;;;8.08;100.00
9474;BME280;8865;47.636;7.692;2023-04-16T07:48:48;98575.56;;;8.13;100.00
9474;BME280;8865;47.636;7.692;2023-04-16T07:51:14;98579.19;;;8.10;100.00
9474;BME280;8865;47.636;7.692;2023-04-16T07:53:40;98586.69;;;8.15;100.00
9474;BME280;8865;47.636;7.692;2023-04-16T07:56:08;98586.91;;;8.12;100.00
9474;BME280;8865;47.636;7.692;2023-04-16T07:58:34;98582.03;;;8.07;100.00
9474;BME280;8865;47.636;7.692;2023-04-16T08:01:00;98593.50;;;8.04;100.00
9474;BME280;8865;47.636;7.692;2023-04-16T08:03:27;98594.41;;;8.16;100.00
9474;BME280;8865;47.636;7.692;2023-04-16T08:05:53;98602.41;;;8.26;100.00
9474;BME280;8865;47.636;7.692;2023-04-16T08:08:19;98609.91;;;8.31;100.00
9474;BME280;8865;47.636;7.692;2023-04-16T08:10:45;98604.91;;;8.40;100.00
9474;BME280;8865;47.636;7.692;2023-04-16T08:13:11;98609.59;;;8.48;100.00
9474;BME280;8865;47.636;7.692;2023-04-16T08:15:36;98614.03;;;8.59;100.00
9474;BME280;8865;47.636;7.692;2023-04-16T08:18:02;98608.50;;;8.64;100.00
9474;BME280;8865;47.636;7.692;2023-04-16T08:20:31;98608.75;;;8.72;100.00
9474;BME280;8865;47.636;7.692;2023-04-16T08:22:57;98604.19;;;8.63;100.00
9474;BME280;8865;47.636;7.692;2023-04-16T08:25:23;98599.50;;;8.68;100.00
9474;BME280;8865;47.636;7.692;2023-04-16T08:27:49;98607.91;;;8.47;100.00
9474;BME280;8865;47.636;7.692;2023-04-16T08:30:15;98602.81;;;8.46;100.00
9474;BME280;8865;47.636;7.692;2023-04-16T08:32:42;98605.41;;;8.46;100.00
9474;BME280;8865;47.636;7.692;2023-04-16T08:35:08;98604.19;;;8.63;100.00
9474;BME280;8865;47.636;7.692;2023-04-16T08:37:34;98610.44;;;8.73;100.00
9474;BME280;8865;47.636;7.692;2023-04-16T08:40:01;98612.25;;;8.84;100.00
9474;BME280;8865;47.636;7.692;2023-04-16T08:47:30;98621.22;;;8.92;100.00
9474;BME280;8865;47.636;7.692;2023-04-16T08:49:59;98625.81;;;8.89;100.00
9474;BME280;8865;47.636;7.692;2023-04-16T08:52:27;98630.19;;;8.88;100.00
9474;BME280;8865;47.636;7.692;2023-04-16T08:55:10;98622.00;;;8.82;100.00
9474;BME280;8865;47.636;7.692;2023-04-16T08:57:49;98621.38;;;8.78;100.00
9474;BME280;8865;47.636;7.692;2023-04-16T09:00:21;98620.66;;;8.76;100.00
9474;BME280;8865;47.636;7.692;2023-04-16T09:02:49;98628.28;;;8.42;100.00
9474;BME280;8865;47.636;7.692;2023-04-16T09:05:16;98623.81;;;8.44;100.00
9474;BME280;8865;47.636;7.692;2023-04-16T09:07:44;98637.38;;;8.36;100.00
9474;BME280;8865;47.636;7.692;2023-04-16T09:10:11;98642.53;;;8.25;100.00
9474;BME280;8865;47.636;7.692;2023-04-16T09:12:40;98649.47;;;8.37;100.00
9474;BME280;8865;47.636;7.692;2023-04-16T09:15:09;98643.72;;;8.32;100.00
9474;BME280;8865;47.636;7.692;2023-04-16T09:17:36;98650.41;;;8.36;100.00
9474;BME280;8865;47.636;7.692;2023-04-16T09:20:04;98655.25;;;8.30;100.00
9474;BME280;8865;47.636;7.692;2023-04-16T09:22:34;98650.25;;;8.27;100.00
9474;BME280;8865;47.636;7.692;2023-04-16T09:25:00;98654.38;;;8.29;100.00
9474;BME280;8865;47.636;7.692;2023-04-16T09:27:27;98655.03;;;8.20;100.00
9474;BME280;8865;47.636;7.692;2023-04-16T09:29:53;98658.34;;;8.35;100.00
9474;BME280;8865;47.636;7.692;2023-04-16T09:32:24;98656.22;;;8.16;100.00
9474;BME280;8865;47.636;7.692;2023-04-16T09:37:19;98649.56;;;8.49;100.00
9474;BME280;8865;47.636;7.692;2023-04-16T09:39:56;98653.44;;;8.56;100.00
9474;BME280;8865;47.636;7.692;2023-04-16T09:42:24;98650.53;;;8.72;100.00
9474;BME280;8865;47.636;7.692;2023-04-16T09:44:52;98647.94;;;8.96;100.00
9474;BME280;8865;47.636;7.692;2023-04-16T09:47:18;98660.75;;;9.23;100.00
9474;BME280;8865;47.636;7.692;2023-04-16T09:49:44;98652.00;;;9.47;100.00
9474;BME280;8865;47.636;7.692;2023-04-16T09:52:15;98646.00;;;9.69;100.00
9474;BME280;8865;47.636;7.692;2023-04-16T09:54:52;98645.66;;;9.85;100.00
9474;BME280;8865;47.636;7.692;2023-04-16T09:57:22;98652.41;;;10.10;100.00
9474;BME280;8865;47.636;7.692;2023-04-16T10:00:01;98641.59;;;10.26;100.00
9474;BME280;8865;47.636;7.692;2023-04-16T10:02:28;98642.31;;;10.51;100.00
9474;BME280;8865;47.636;7.692;2023-04-16T10:04:55;98642.38;;;10.72;100.00
9474;BME280;8865;47.636;7.692;2023-04-16T10:07:27;98643.03;;;10.85;100.00
9474;BME280;8865;47.636;7.692;2023-04-16T10:09:54;98638.28;;;10.90;100.00
9474;BME280;8865;47.636;7.692;2023-04-16T10:12:20;98637.28;;;10.70;100.00
9474;BME280;8865;47.636;7.692;2023-04-16T10:14:46;98642.97;;;10.76;100.00
9474;BME280;8865;47.636;7.692;2023-04-16T10:17:12;98645.44;;;10.77;100.00
9474;BME280;8865;47.636;7.692;2023-04-16T10:19:39;98648.19;;;10.76;100.00
9474;BME280;8865;47.636;7.692;2023-04-16T10:22:05;98650.06;;;10.85;100.00
9474;BME280;8865;47.636;7.692;2023-04-16T10:24:33;98643.59;;;11.00;100.00
9474;BME280;8865;47.636;7.692;2023-04-16T10:26:59;98647.13;;;11.11;100.00
9474;BME280;8865;47.636;7.692;2023-04-16T10:29:26;98647.38;;;11.07;100.00
9474;BME280;8865;47.636;7.692;2023-04-16T10:31:55;98647.41;;;10.96;100.00
9474;BME280;8865;47.636;7.692;2023-04-16T10:34:22;98651.75;;;10.86;100.00
9474;BME280;8865;47.636;7.692;2023-04-16T10:36:51;98649.25;;;10.73;100.00
9474;BME280;8865;47.636;7.692;2023-04-16T10:39:19;98653.13;;;10.58;100.00
9474;BME280;8865;47.636;7.692;2023-04-16T10:41:46;98650.03;;;10.52;100.00
9474;BME280;8865;47.636;7.692;2023-04-16T10:44:12;98658.63;;;10.43;100.00
9474;BME280;8865;47.636;7.692;2023-04-16T10:46:45;98658.59;;;10.32;100.00
9474;BME280;8865;47.636;7.692;2023-04-16T10:49:24;98665.41;;;10.23;100.00
9474;BME280;8865;47.636;7.692;2023-04-16T10:51:57;98665.16;;;10.26;100.00
9474;BME280;8865;47.636;7.692;2023-04-16T10:54:28;98671.81;;;10.30;100.00
9474;BME280;8865;47.636;7.692;2023-04-16T10:56:58;98664.81;;;10.31;100.00
9474;BME280;8865;47.636;7.692;2023-04-16T10:59:32;98666.97;;;10.37;100.00
9474;BME280;8865;47.636;7.692;2023-04-16T11:02:01;98670.63;;;10.46;100.00
9474;BME280;8865;47.636;7.692;2023-04-16T11:04:34;98662.78;;;10.57;100.00
9474;BME280;8865;47.636;7.692;2023-04-16T11:10:05;98661.56;;;11.05;100.00
9474;BME280;8865;47.636;7.692;2023-04-16T11:12:36;98659.22;;;11.23;100.00
9474;BME280;8865;47.636;7.692;2023-04-16T11:15:13;98656.28;;;11.37;100.00
9474;BME280;8865;47.636;7.692;2023-04-16T11:17:44;98652.06;;;11.46;100.00
9474;BME280;8865;47.636;7.692;2023-04-16T11:22:40;98644.13;;;11.57;100.00
9474;BME280;8865;47.636;7.692;2023-04-16T11:25:07;98648.16;;;11.40;100.00
9474;BME280;8865;47.636;7.692;2023-04-16T11:27:33;98648.28;;;11.39;100.00
9474;BME280;8865;47.636;7.692;2023-04-16T11:30:06;98651.25;;;11.13;100.00
9474;BME280;8865;47.636;7.692;2023-04-16T11:32:36;98647.81;;;11.13;100.00
9474;BME280;8865;47.636;7.692;2023-04-16T11:35:06;98648.50;;;10.94;100.00
9474;BME280;8865;47.636;7.692;2023-04-16T11:37:37;98651.19;;;11.03;100.00
9474;BME280;8865;47.636;7.692;2023-04-16T11:40:04;98648.50;;;11.15;100.00
9474;BME280;8865;47.636;7.692;2023-04-16T11:42:35;98653.53;;;11.39;100.00
9474;BME280;8865;47.636;7.692;2023-04-16T11:45:09;98649.38;;;11.57;100.00
9474;BME280;8865;47.636;7.692;2023-04-16T11:47:52;98641.44;;;11.48;100.00
9474;BME280;8865;47.636;7.692;2023-04-16T11:50:24;98642.09;;;11.40;100.00
9474;BME280;8865;47.636;7.692;2023-04-16T11:52:53;98640.59;;;11.47;100.00
9474;BME280;8865;47.636;7.692;2023-04-16T11:55:19;98645.16;;;11.45;100.00
9474;BME280;8865;47.636;7.692;2023-04-16T11:57:45;98651.34;;;11.44;100.00
9474;BME280;8865;47.636;7.692;2023-04-16T12:00:12;98648.06;;;11.52;100.00
9474;BME280;8865;47.636;7.692;2023-04-16T12:02:43;98648.94;;;11.73;100.00
9474;BME280;8865;47.636;7.692;2023-04-16T12:07:52;98641.50;;;12.09;100.00
9474;BME280;8865;47.636;7.692;2023-04-16T12:10:18;98648.03;;;12.15;100.00
9474;BME280;8865;47.636;7.692;2023-04-16T12:12:44;98650.53;;;12.17;100.00
9474;BME280;8865;47.636;7.692;2023-04-16T12:15:10;98652.34;;;12.26;100.00
9474;BME280;8865;47.636;7.692;2023-04-16T12:17:37;98645.84;;;12.20;100.00
9474;BME280;8865;47.636;7.692;2023-04-16T12:20:14;98641.06;;;12.45;100.00
9474;BME280;8865;47.636;7.692;2023-04-16T12:22:46;98643.88;;;12.73;100.00
9474;BME280;8865;47.636;7.692;2023-04-16T12:25:16;98638.34;;;12.66;100.00
9474;BME280;8865;47.636;7.692;2023-04-16T12:27:53;98634.22;;;12.73;100.00
9474;BME280;8865;47.636;7.692;2023-04-16T12:30:22;98637.94;;;13.00;100.00
9474;BME280;8865;47.636;7.692;2023-04-16T12:32:51;98640.44;;;13.11;100.00
9474;BME280;8865;47.636;7.692;2023-04-16T12:35:31;98633.09;;;13.34;100.00
9474;BME280;8865;47.636;7.692;2023-04-16T12:37:57;98629.75;;;13.62;100.00
9474;BME280;8865;47.636;7.692;2023-04-16T12:40:23;98628.22;;;13.59;100.00
9474;BME280;8865;47.636;7.692;2023-04-16T12:42:50;98626.63;;;13.86;100.00
9474;BME280;8865;47.636;7.692;2023-04-16T12:45:16;98629.06;;;14.07;100.00
9474;BME280;8865;47.636;7.692;2023-04-16T12:47:42;98623.50;;;14.00;100.00
9474;BME280;8865;47.636;7.692;2023-04-16T12:50:08;98630.00;;;14.06;100.00
9474;BME280;8865;47.636;7.692;2023-04-16T12:52:34;98627.75;;;14.11;100.00
9474;BME280;8865;47.636;7.692;2023-04-16T12:55:01;98627.47;;;14.14;100.00
9474;BME280;8865;47.636;7.692;2023-04-16T12:57:27;98632.59;;;14.16;100.00
9474;BME280;8865;47.636;7.692;2023-04-16T12:59:54;98630.06;;;13.96;100.00
9474;BME280;8865;47.636;7.692;2023-04-16T13:02:22;98626.97;;;13.73;100.00
9474;BME280;8865;47.636;7.692;2023-04-16T13:04:49;98630.44;;;13.54;100.00
9474;BME280;8865;47.636;7.692;2023-04-16T13:07:15;98637.94;;;13.39;100.00
9474;BME280;8865;47.636;7.692;2023-04-16T13:09:42;98633.66;;;13.09;100.00
9474;BME280;8865;47.636;7.692;2023-04-16T13:12:08;98632.56;;;13.21;100.00
9474;BME280;8865;47.636;7.692;2023-04-16T13:14:34;98627.13;;;13.32;100.00
9474;BME280;8865;47.636;7.692;2023-04-16T13:17:00;98634.88;;;13.44;100.00
9474;BME280;8865;47.636;7.692;2023-04-16T13:19:27;98620.34;;;13.49;100.00
9474;BME280;8865;47.636;7.692;2023-04-16T13:21:53;98618.63;;;13.68;100.00
9474;BME280;8865;47.636;7.692;2023-04-16T13:24:19;98629.00;;;13.79;100.00
9474;BME280;8865;47.636;7.692;2023-04-16T13:26:45;98628.28;;;13.87;100.00
9474;BME280;8865;47.636;7.692;2023-04-16T13:29:11;98620.94;;;13.90;100.00
9474;BME280;8865;47.636;7.692;2023-04-16T13:31:37;98624.38;;;13.91;100.00
9474;BME280;8865;47.636;7.692;2023-04-16T13:34:03;98631.84;;;13.96;100.00